createdAt,value
2022-11-21T00:01:34.642Z,96619.22
2022-11-21T00:03:35.992Z,96617.66
2022-11-21T00:05:37.340Z,96608.50
2022-11-21T00:07:38.861Z,96607.13
2022-11-21T00:09:40.225Z,96611.69
2022-11-21T00:11:41.552Z,96602.56
2022-11-21T00:13:42.880Z,96592.53
2022-11-21T00:15:44.176Z,96585.09
2022-11-21T00:17:45.508Z,96588.75
2022-11-21T00:19:46.809Z,96588.97
2022-11-21T00:21:48.092Z,96587.53
2022-11-21T00:23:49.502Z,96581.06
2022-11-21T00:25:50.784Z,96579.69
2022-11-21T00:27:52.098Z,96579.84
2022-11-21T00:29:53.399Z,96574.94
2022-11-21T00:31:55.122Z,96574.25
2022-11-21T00:33:56.452Z,96569.41
2022-11-21T00:35:57.736Z,96561.03
2022-11-21T00:37:59.008Z,96556.94
2022-11-21T00:40:00.380Z,96556.25
2022-11-21T00:42:01.717Z,96546.22
2022-11-21T00:44:02.993Z,96539.53
2022-11-21T00:46:04.518Z,96532.09
2022-11-21T00:48:05.793Z,96536.44
2022-11-21T00:50:07.075Z,96526.38
2022-11-21T00:52:08.413Z,96517.13
2022-11-21T00:54:09.690Z,96511.06
2022-11-21T00:56:11.165Z,96510.16
2022-11-21T00:58:12.452Z,96507.69
2022-11-21T01:00:13.724Z,96510.16
2022-11-21T01:02:15.036Z,96501.59
2022-11-21T01:04:16.345Z,96493.75
2022-11-21T01:06:17.740Z,96497.50
2022-11-21T01:08:19.020Z,96489.22
2022-11-21T01:10:20.337Z,96484.22
2022-11-21T01:12:21.632Z,96479.25
2022-11-21T01:14:22.896Z,96475.25
2022-11-21T01:16:24.418Z,96472.94
2022-11-21T01:18:25.740Z,96473.28
2022-11-21T01:20:27.013Z,96467.84
2022-11-21T01:22:29.270Z,96470.94
2022-11-21T01:24:30.574Z,96463.28
2022-11-21T01:26:33.000Z,96465.75
2022-11-21T01:28:34.308Z,96470.94
2022-11-21T01:30:35.616Z,96477.16
2022-11-21T01:32:36.889Z,96462.09
2022-11-21T01:34:38.184Z,96467.47
2022-11-21T01:36:39.509Z,96471.91
2022-11-21T01:38:40.843Z,96460.28
2022-11-21T01:40:42.124Z,96446.94
2022-11-21T01:42:43.416Z,96442.94
2022-11-21T01:44:44.739Z,96444.97
2022-11-21T01:46:46.097Z,96440.97
2022-11-21T01:48:47.427Z,96439.59
2022-11-21T01:50:48.905Z,96432.16
2022-11-21T01:52:50.189Z,96429.69
2022-11-21T01:54:51.536Z,96428.16
2022-11-21T01:56:53.003Z,96432.63
2022-11-21T01:58:54.306Z,96433.66
2022-11-21T02:00:55.613Z,96433.03
2022-11-21T02:02:56.948Z,96433.31
2022-11-21T02:04:58.212Z,96430.09
2022-11-21T02:06:59.809Z,96426.91
2022-11-21T02:09:01.128Z,96421.19
2022-11-21T02:11:02.408Z,96417.06
2022-11-21T02:13:03.721Z,96415.56
2022-11-21T02:15:05.044Z,96406.44
2022-11-21T02:17:06.352Z,96410.84
2022-11-21T02:19:07.649Z,96403.34
2022-11-21T02:21:08.942Z,96400.91
2022-11-21T02:23:10.230Z,96396.78
2022-11-21T02:25:11.532Z,96394.97
2022-11-21T02:27:12.817Z,96386.53
2022-11-21T02:29:14.206Z,96388.16
2022-11-21T02:31:15.532Z,96386.19
2022-11-21T02:33:16.820Z,96380.69
2022-11-21T02:35:18.145Z,96377.69
2022-11-21T02:37:19.468Z,96367.09
2022-11-21T02:39:20.804Z,96364.03
2022-11-21T02:41:26.566Z,96357.34
2022-11-21T02:43:28.144Z,96362.63
2022-11-21T02:45:29.840Z,96368.91
2022-11-21T02:47:31.121Z,96362.50
2022-11-21T02:49:32.403Z,96353.53
2022-11-21T02:51:33.695Z,96346.47
2022-11-21T02:53:35.008Z,96346.34
2022-11-21T02:55:36.308Z,96349.38
2022-11-21T02:57:37.608Z,96343.47
2022-11-21T02:59:38.901Z,96343.72
2022-11-21T03:01:40.164Z,96341.44
2022-11-21T03:03:41.477Z,96340.09
2022-11-21T03:05:42.805Z,96336.09
2022-11-21T03:07:44.153Z,96335.63
2022-11-21T03:09:45.503Z,96205.63
2022-11-21T03:11:46.796Z,96336.25
2022-11-21T03:13:48.069Z,96329.88
2022-11-21T03:15:49.427Z,96323.44
2022-11-21T03:17:50.731Z,96321.91
2022-11-21T03:19:52.062Z,96325.50
2022-11-21T03:21:54.536Z,96317.13
2022-11-21T03:23:55.810Z,96313.97
2022-11-21T03:25:57.116Z,96306.59
2022-11-21T03:27:58.469Z,96313.63
2022-11-21T03:29:59.755Z,96302.78
2022-11-21T03:32:03.938Z,96310.75
2022-11-21T03:34:05.247Z,96313.53
2022-11-21T03:36:06.547Z,96307.81
2022-11-21T03:38:07.829Z,96301.25
2022-11-21T03:40:09.133Z,96310.84
2022-11-21T03:42:10.418Z,96304.28
2022-11-21T03:44:11.749Z,96308.69
2022-11-21T03:46:13.041Z,96306.34
2022-11-21T03:48:14.352Z,96296.38
2022-11-21T03:50:18.946Z,96303.31
2022-11-21T03:52:20.256Z,96293.25
2022-11-21T03:54:21.528Z,96289.88
2022-11-21T03:56:22.875Z,96294.00
2022-11-21T03:58:24.148Z,96294.00
2022-11-21T04:00:25.465Z,96287.91
2022-11-21T04:02:26.810Z,96296.78
2022-11-21T04:04:28.259Z,96291.94
2022-11-21T04:06:31.436Z,96286.31
2022-11-21T04:08:32.750Z,96284.84
2022-11-21T04:10:34.053Z,96281.59
2022-11-21T04:12:35.362Z,96294.53
2022-11-21T04:14:36.644Z,96279.28
2022-11-21T04:16:37.977Z,96283.72
2022-11-21T04:18:39.333Z,96282.34
2022-11-21T04:20:40.607Z,96277.09
2022-11-21T04:22:41.880Z,96281.00
2022-11-21T04:24:43.185Z,96285.91
2022-11-21T04:26:44.511Z,96277.19
2022-11-21T04:28:45.791Z,96284.13
2022-11-21T04:30:47.113Z,96275.00
2022-11-21T04:32:49.514Z,96282.13
2022-11-21T04:34:50.867Z,96277.94
2022-11-21T04:36:52.232Z,96276.66
2022-11-21T04:38:53.605Z,96267.63
2022-11-21T04:40:54.917Z,96276.50
2022-11-21T04:42:56.209Z,96275.00
2022-11-21T04:44:57.529Z,96281.50
2022-11-21T04:47:05.012Z,96267.31
2022-11-21T04:49:06.933Z,96266.56
2022-11-21T04:51:08.300Z,96266.78
2022-11-21T04:53:09.685Z,96262.59
2022-11-21T04:55:10.969Z,96258.75
2022-11-21T04:57:12.260Z,96259.13
2022-11-21T04:59:13.546Z,96255.16
2022-11-21T05:01:14.905Z,96264.81
2022-11-21T05:03:16.236Z,96255.78
2022-11-21T05:05:17.535Z,96253.53
2022-11-21T05:07:18.891Z,96245.28
2022-11-21T05:09:20.228Z,96250.56
2022-11-21T05:11:40.317Z,96238.03
2022-11-21T05:13:41.622Z,96245.97
2022-11-21T05:15:42.893Z,96236.00
2022-11-21T05:17:44.210Z,96247.19
2022-11-21T05:19:45.494Z,96250.78
2022-11-21T05:21:46.818Z,96244.81
2022-11-21T05:23:48.142Z,96239.03
2022-11-21T05:25:49.491Z,96235.78
2022-11-21T05:27:50.770Z,96240.16
2022-11-21T05:29:52.096Z,96242.72
2022-11-21T05:31:53.395Z,96242.56
2022-11-21T05:33:54.691Z,96236.94
2022-11-21T05:35:56.168Z,96237.06
2022-11-21T05:37:57.529Z,96239.06
2022-11-21T05:39:58.885Z,96241.63
2022-11-21T05:42:03.233Z,96237.81
2022-11-21T05:44:04.780Z,96231.31
2022-11-21T05:46:06.075Z,96231.59
2022-11-21T05:48:08.024Z,96224.06
2022-11-21T05:50:09.365Z,96229.09
2022-11-21T05:52:10.648Z,96240.34
2022-11-21T05:54:11.964Z,96228.91
2022-11-21T05:56:13.232Z,96226.31
2022-11-21T05:58:14.560Z,96222.00
2022-11-21T06:00:15.838Z,96222.75
2022-11-21T06:02:36.005Z,96232.06
2022-11-21T06:04:37.646Z,96231.56
2022-11-21T06:06:39.123Z,96234.25
2022-11-21T06:08:40.420Z,96235.53
2022-11-21T06:10:41.729Z,96229.88
2022-11-21T06:12:43.013Z,96232.66
2022-11-21T06:14:44.344Z,96239.03
2022-11-21T06:16:45.636Z,96236.84
2022-11-21T06:18:46.917Z,96243.75
2022-11-21T06:20:48.240Z,96245.84
2022-11-21T06:22:49.592Z,96250.25
2022-11-21T06:24:50.888Z,96250.50
2022-11-21T06:26:52.229Z,96241.25
2022-11-21T06:28:53.509Z,96248.28
2022-11-21T06:30:54.829Z,96250.41
2022-11-21T06:32:56.187Z,96243.88
2022-11-21T06:34:57.491Z,96255.50
2022-11-21T06:36:58.766Z,96246.28
2022-11-21T06:39:00.093Z,96249.72
2022-11-21T06:41:01.384Z,96251.28
2022-11-21T06:43:02.733Z,96251.81
2022-11-21T06:45:04.044Z,96248.78
2022-11-21T06:47:05.336Z,96252.38
2022-11-21T06:49:07.568Z,96245.41
2022-11-21T06:51:09.123Z,96252.75
2022-11-21T06:53:10.519Z,96244.66
2022-11-21T06:55:12.001Z,96249.13
2022-11-21T06:57:13.292Z,96243.25
2022-11-21T06:59:15.617Z,96246.72
2022-11-21T07:01:16.920Z,96247.22
2022-11-21T07:03:18.449Z,96256.97
2022-11-21T07:05:19.816Z,96259.25
2022-11-21T07:07:21.320Z,96259.66
2022-11-21T07:09:38.168Z,96258.91
2022-11-21T07:11:39.437Z,96253.94
2022-11-21T07:13:40.766Z,96257.66
2022-11-21T07:15:42.092Z,96261.31
2022-11-21T07:17:43.368Z,96266.81
2022-11-21T07:19:44.637Z,96272.25
2022-11-21T07:21:45.916Z,96274.50
2022-11-21T07:23:47.927Z,96281.94
2022-11-21T07:25:49.264Z,96276.63
2022-11-21T07:27:50.589Z,96284.06
2022-11-21T07:29:51.920Z,96285.72
2022-11-21T07:31:53.240Z,96287.50
2022-11-21T07:33:54.636Z,96292.81
2022-11-21T07:35:56.401Z,96290.50
2022-11-21T07:37:57.803Z,96294.16
2022-11-21T07:39:59.095Z,96299.47
2022-11-21T07:42:00.380Z,96298.09
2022-11-21T07:44:01.705Z,96296.63
2022-11-21T07:46:03.039Z,96296.09
2022-11-21T07:48:04.308Z,96304.84
2022-11-21T07:50:05.589Z,96305.13
2022-11-21T07:52:06.896Z,96311.31
2022-11-21T07:54:08.221Z,96298.94
2022-11-21T07:56:09.794Z,96299.19
2022-11-21T07:58:11.124Z,96306.22
2022-11-21T08:00:12.468Z,96314.13
2022-11-21T08:02:13.837Z,96320.41
2022-11-21T08:04:15.156Z,96319.81
2022-11-21T08:06:16.477Z,96326.84
2022-11-21T08:08:17.750Z,96325.34
2022-11-21T08:10:19.060Z,96333.97
2022-11-21T08:12:20.399Z,96334.31
2022-11-21T08:14:21.682Z,96331.97
2022-11-21T08:16:24.440Z,96336.31
2022-11-21T08:18:26.388Z,96338.03
2022-11-21T08:20:27.709Z,96334.66
2022-11-21T08:22:28.993Z,96338.88
2022-11-21T08:24:30.288Z,96346.56
2022-11-21T08:26:31.563Z,96346.53
2022-11-21T08:28:32.873Z,96354.41
2022-11-21T08:30:34.162Z,96353.91
2022-11-21T08:32:35.444Z,96360.31
2022-11-21T08:34:36.746Z,96357.69
2022-11-21T08:36:38.053Z,96356.19
2022-11-21T08:38:39.373Z,96360.75
2022-11-21T08:40:40.663Z,96361.63
2022-11-21T08:42:41.998Z,96365.28
2022-11-21T08:44:43.361Z,96374.03
2022-11-21T08:46:44.632Z,96374.88
2022-11-21T08:48:45.924Z,96385.19
2022-11-21T08:50:47.203Z,96380.09
2022-11-21T08:52:48.605Z,96388.81
2022-11-21T08:54:49.892Z,96382.03
2022-11-21T08:56:51.177Z,96387.00
2022-11-21T08:58:52.452Z,96387.06
2022-11-21T09:00:53.716Z,96397.06
2022-11-21T09:02:55.728Z,96396.31
2022-11-21T09:04:57.024Z,96402.16
2022-11-21T09:06:58.521Z,96412.72
2022-11-21T09:08:59.809Z,96421.16
2022-11-21T09:11:01.100Z,96418.91
2022-11-21T09:13:02.714Z,96429.19
2022-11-21T09:15:22.877Z,96439.34
2022-11-21T09:17:42.940Z,96437.28
2022-11-21T09:19:44.264Z,96448.59
2022-11-21T09:21:45.990Z,96450.44
2022-11-21T09:23:47.378Z,96448.88
2022-11-21T09:25:48.712Z,96454.59
2022-11-21T09:27:49.992Z,96453.81
2022-11-21T09:29:54.230Z,96458.59
2022-11-21T09:31:55.764Z,96453.00
2022-11-21T09:33:57.104Z,96469.50
2022-11-21T09:35:58.454Z,96473.97
2022-11-21T09:37:59.741Z,96472.47
2022-11-21T09:40:01.051Z,96474.88
2022-11-21T09:42:02.384Z,96486.69
2022-11-21T09:44:03.708Z,96500.00
2022-11-21T09:46:04.998Z,96493.16
2022-11-21T09:48:06.649Z,96499.59
2022-11-21T09:50:08.036Z,96503.38
2022-11-21T09:52:09.365Z,96511.69
2022-11-21T09:54:10.793Z,96518.06
2022-11-21T09:56:12.166Z,96513.44
2022-11-21T09:58:13.480Z,96515.97
2022-11-21T10:00:14.809Z,96512.81
2022-11-21T10:02:16.205Z,96516.97
2022-11-21T10:04:17.516Z,96520.13
2022-11-21T10:06:18.953Z,96527.13
2022-11-21T10:08:20.276Z,96534.31
2022-11-21T10:10:21.561Z,96535.00
2022-11-21T10:12:37.879Z,96532.78
2022-11-21T10:14:39.916Z,96526.19
2022-11-21T10:16:42.336Z,96526.22
2022-11-21T10:18:43.701Z,96533.81
2022-11-21T10:20:45.030Z,96531.19
2022-11-21T10:22:49.243Z,96538.63
2022-11-21T10:24:50.562Z,96533.25
2022-11-21T10:26:51.884Z,96536.31
2022-11-21T10:28:53.216Z,96535.16
2022-11-21T10:30:54.525Z,96539.72
2022-11-21T10:32:55.827Z,96534.97
2022-11-21T10:34:57.164Z,96532.72
2022-11-21T10:36:58.489Z,96544.97
2022-11-21T10:38:59.840Z,96530.75
2022-11-21T10:41:01.190Z,96538.91
2022-11-21T10:43:22.436Z,96540.34
2022-11-21T10:45:23.720Z,96547.72
2022-11-21T10:47:28.010Z,96549.25
2022-11-21T10:49:29.280Z,96550.13
2022-11-21T10:51:30.608Z,96551.81
2022-11-21T10:53:50.752Z,96554.50
2022-11-21T10:55:52.038Z,96558.16
2022-11-21T10:57:55.006Z,96565.19
2022-11-21T10:59:56.307Z,96560.47
2022-11-21T11:01:57.693Z,96558.25
2022-11-21T11:04:20.766Z,96504.72
2022-11-21T11:06:20.289Z,96567.41
2022-11-21T11:08:21.593Z,96563.47
2022-11-21T11:10:27.242Z,96570.78
2022-11-21T11:12:48.052Z,96573.81
2022-11-21T11:14:49.379Z,96576.84
2022-11-21T11:16:50.669Z,96584.00
2022-11-21T11:18:52.210Z,96581.84
2022-11-21T11:20:53.637Z,96585.59
2022-11-21T11:22:54.989Z,96586.66
2022-11-21T11:25:00.427Z,96589.53
2022-11-21T11:27:02.767Z,96586.34
2022-11-21T11:29:04.135Z,96592.56
2022-11-21T11:31:05.709Z,96597.84
2022-11-21T11:33:06.993Z,96602.34
2022-11-21T11:35:08.360Z,96601.81
2022-11-21T11:37:09.689Z,96599.53
2022-11-21T11:39:11.505Z,96593.97
2022-11-21T11:41:12.793Z,96606.06
2022-11-21T11:43:32.949Z,96608.78
2022-11-21T11:45:52.868Z,96613.81
2022-11-21T11:47:54.878Z,96612.63
2022-11-21T11:50:11.449Z,96619.09
2022-11-21T11:52:12.821Z,96607.53
2022-11-21T11:54:14.120Z,96605.94
2022-11-21T11:56:15.473Z,96609.53
2022-11-21T11:58:16.804Z,96613.09
2022-11-21T12:00:18.134Z,96618.44
2022-11-21T12:02:19.495Z,96609.28
2022-11-21T12:04:21.108Z,96610.50
2022-11-21T12:06:22.529Z,96604.22
2022-11-21T12:11:05.033Z,96625.63
2022-11-21T12:13:06.322Z,96620.50
2022-11-21T12:15:26.237Z,96617.13
2022-11-21T12:17:27.516Z,96619.13
2022-11-21T12:19:29.123Z,96626.44
2022-11-21T12:21:30.618Z,96621.25
2022-11-21T12:23:32.204Z,96627.91
2022-11-21T12:25:33.992Z,96631.63
2022-11-21T12:27:35.280Z,96629.44
2022-11-21T12:29:36.609Z,96624.75
2022-11-21T12:31:37.945Z,96615.03
2022-11-21T12:33:39.229Z,96621.00
2022-11-21T12:35:40.509Z,96620.72
2022-11-21T12:37:41.876Z,96618.31
2022-11-21T12:39:43.201Z,96604.03
2022-11-21T12:42:02.993Z,96609.34
2022-11-21T12:44:04.291Z,96605.41
2022-11-21T12:46:05.588Z,96611.63
2022-11-21T12:48:25.424Z,96630.66
2022-11-21T12:50:45.422Z,96609.78
2022-11-21T12:53:05.473Z,96614.34
2022-11-21T12:55:06.769Z,96619.69
2022-11-21T12:57:08.084Z,96613.19
2022-11-21T12:59:09.352Z,96602.44
2022-11-21T13:01:15.468Z,96612.78
2022-11-21T13:03:19.969Z,96608.63
2022-11-21T13:05:21.245Z,96617.06
2022-11-21T13:07:22.600Z,96617.66
2022-11-21T13:09:23.904Z,96615.72
2022-11-21T13:11:43.933Z,96616.25
2022-11-21T13:13:45.208Z,96610.59
2022-11-21T13:15:46.496Z,96603.19
2022-11-21T13:17:47.775Z,96605.22
2022-11-21T13:19:49.717Z,96607.16
2022-11-21T13:21:50.997Z,96605.91
2022-11-21T13:23:52.292Z,96604.63
2022-11-21T13:25:53.674Z,96604.31
2022-11-21T13:27:55.017Z,96605.69
2022-11-21T13:29:56.322Z,96607.22
2022-11-21T13:31:57.604Z,96602.69
2022-11-21T13:33:58.924Z,96600.88
2022-11-21T13:36:00.204Z,96603.38
2022-11-21T13:38:04.434Z,96604.03
2022-11-21T13:40:05.761Z,96606.56
2022-11-21T13:42:25.625Z,96605.72
2022-11-21T13:44:26.921Z,96603.13
2022-11-21T13:46:28.213Z,96607.53
2022-11-21T13:48:30.622Z,96611.03
2022-11-21T13:50:31.913Z,96609.50
2022-11-21T13:52:33.237Z,96613.13
2022-11-21T13:54:34.561Z,96615.03
2022-11-21T13:56:36.530Z,96610.16
2022-11-21T13:58:38.098Z,96607.75
2022-11-21T14:00:39.432Z,96603.88
2022-11-21T14:02:43.012Z,96612.63
2022-11-21T14:04:44.356Z,96606.13
2022-11-21T14:06:45.769Z,96612.38
2022-11-21T14:08:48.076Z,96609.22
2022-11-21T14:10:49.532Z,96610.31
2022-11-21T14:12:50.920Z,96610.53
2022-11-21T14:14:52.351Z,96604.00
2022-11-21T14:16:53.669Z,96603.47
2022-11-21T14:18:55.012Z,96604.53
2022-11-21T14:20:57.398Z,96600.59
2022-11-21T14:22:58.810Z,96606.81
2022-11-21T14:25:00.108Z,96597.66
2022-11-21T14:27:01.497Z,96594.44
2022-11-21T14:29:02.762Z,96591.97
2022-11-21T14:31:04.070Z,96594.56
2022-11-21T14:33:05.378Z,96595.25
2022-11-21T14:35:06.702Z,96600.91
2022-11-21T14:37:08.007Z,96604.69
2022-11-21T14:41:31.295Z,96594.38
2022-11-21T14:43:32.632Z,96594.72
2022-11-21T14:45:33.917Z,96592.63
2022-11-21T14:47:35.209Z,96592.25
2022-11-21T14:49:36.544Z,96592.75
2022-11-21T14:51:37.830Z,96582.25
2022-11-21T14:53:39.162Z,96589.66
2022-11-21T14:55:40.450Z,96581.84
2022-11-21T14:57:42.341Z,96578.25
2022-11-21T14:59:43.720Z,96583.19
2022-11-21T15:01:47.766Z,96580.47
2022-11-21T15:03:49.305Z,96584.78
2022-11-21T15:06:08.269Z,96580.56
2022-11-21T15:08:38.727Z,96586.53
2022-11-21T15:10:31.743Z,96580.63
2022-11-21T15:12:33.328Z,96583.44
2022-11-21T15:14:34.669Z,96581.06
2022-11-21T15:16:35.937Z,96577.97
2022-11-21T15:18:37.739Z,96573.97
2022-11-21T15:20:39.093Z,96574.16
2022-11-21T15:22:41.197Z,96572.69
2022-11-21T15:24:43.086Z,96576.50
2022-11-21T15:26:44.562Z,96580.13
2022-11-21T15:28:51.920Z,96578.72
2022-11-21T15:30:53.205Z,96592.53
2022-11-21T15:32:54.512Z,96580.88
2022-11-21T15:34:55.819Z,96587.09
2022-11-21T15:36:57.137Z,96587.34
2022-11-21T15:38:58.545Z,96578.34
2022-11-21T15:40:59.896Z,96576.94
2022-11-21T15:43:01.802Z,96581.41
2022-11-21T15:45:03.137Z,96594.41
2022-11-21T15:47:07.516Z,96587.00
2022-11-21T15:49:31.458Z,96585.41
2022-11-21T15:53:52.354Z,96579.34
2022-11-21T15:55:53.636Z,96575.63
2022-11-21T15:57:15.068Z,96581.19
2022-11-21T15:57:58.211Z,96571.69
2022-11-21T15:59:59.588Z,96567.81
2022-11-21T16:02:00.912Z,96567.19
2022-11-21T16:04:02.236Z,96565.78
2022-11-21T16:06:03.535Z,96567.84
2022-11-21T16:08:05.272Z,96566.59
2022-11-21T16:10:08.943Z,96563.59
2022-11-21T16:12:15.961Z,96562.41
2022-11-21T16:14:18.525Z,96559.56
2022-11-21T16:16:19.958Z,96553.38
2022-11-21T16:18:21.242Z,96552.41
2022-11-21T16:20:22.542Z,96539.63
2022-11-21T16:22:23.916Z,96550.53
2022-11-21T16:24:25.220Z,96541.22
2022-11-21T16:26:28.804Z,96539.63
2022-11-21T16:28:30.458Z,96543.19
2022-11-21T16:30:31.748Z,96546.78
2022-11-21T16:32:33.076Z,96537.66
2022-11-21T16:34:34.417Z,96549.03
2022-11-21T16:36:35.749Z,96534.81
2022-11-21T16:38:37.078Z,96541.00
2022-11-21T16:40:39.452Z,96533.59
2022-11-21T16:42:40.850Z,96535.66
2022-11-21T16:44:42.201Z,96533.50
2022-11-21T16:46:43.592Z,96531.19
2022-11-21T16:48:45.023Z,96525.53
2022-11-21T16:50:46.380Z,96527.50
2022-11-21T16:52:47.740Z,96521.03
2022-11-21T16:54:49.020Z,96516.06
2022-11-21T16:56:56.041Z,96511.28
2022-11-21T16:58:57.369Z,96506.53
2022-11-21T17:00:59.215Z,96509.38
2022-11-21T17:03:00.613Z,96507.13
2022-11-21T17:05:01.997Z,96378.34
2022-11-21T17:07:03.373Z,96517.00
2022-11-21T17:09:04.720Z,96506.28
2022-11-21T17:11:06.010Z,96505.63
2022-11-21T17:13:07.286Z,96500.66
2022-11-21T17:15:09.379Z,96506.47
2022-11-21T17:17:16.402Z,96499.38
2022-11-21T17:19:17.687Z,96497.19
2022-11-21T17:21:19.028Z,96488.13
2022-11-21T17:23:20.299Z,96500.22
2022-11-21T17:25:21.564Z,96510.63
2022-11-21T17:27:22.855Z,96506.75
2022-11-21T17:29:24.227Z,96505.47
2022-11-21T17:31:25.552Z,96495.66
2022-11-21T17:33:26.841Z,96495.22
2022-11-21T17:35:28.144Z,96495.63
2022-11-21T17:37:29.427Z,96492.84
2022-11-21T17:39:30.842Z,96495.16
2022-11-21T17:41:32.312Z,96494.94
2022-11-21T17:43:33.729Z,96508.44
2022-11-21T17:45:35.009Z,96493.97
2022-11-21T17:47:36.306Z,96493.97
2022-11-21T17:49:43.558Z,96502.47
2022-11-21T17:51:46.103Z,96496.47
2022-11-21T17:53:47.458Z,96493.22
2022-11-21T17:55:48.754Z,96495.91
2022-11-21T17:57:50.102Z,96497.00
2022-11-21T17:59:51.424Z,96490.38
2022-11-21T18:01:52.838Z,96482.97
2022-11-21T18:03:54.265Z,96481.38
2022-11-21T18:05:55.544Z,96493.63
2022-11-21T18:07:57.268Z,96490.44
2022-11-21T18:10:20.380Z,96485.63
2022-11-21T18:12:19.897Z,96484.31
2022-11-21T18:14:21.896Z,96492.25
2022-11-21T18:16:23.184Z,96499.28
2022-11-21T18:18:24.465Z,96491.81
2022-11-21T18:20:25.781Z,96494.56
2022-11-21T18:22:29.574Z,96488.88
2022-11-21T18:24:31.216Z,96483.22
2022-11-21T18:26:38.786Z,96489.41
2022-11-21T18:28:40.111Z,96481.16
2022-11-21T18:30:41.402Z,96483.91
2022-11-21T18:32:43.249Z,96487.53
2022-11-21T18:34:44.565Z,96480.00
2022-11-21T18:36:47.683Z,96492.03
2022-11-21T18:38:54.641Z,96491.28
2022-11-21T18:41:00.111Z,96480.06
2022-11-21T18:43:19.641Z,96483.97
2022-11-21T18:45:33.016Z,96485.06
2022-11-21T18:47:40.244Z,96481.19
2022-11-21T18:49:44.536Z,96474.63
2022-11-21T18:51:45.967Z,96472.34
2022-11-21T18:53:50.233Z,96475.41
2022-11-21T18:56:00.235Z,96453.72
2022-11-21T18:58:04.198Z,96464.41
2022-11-21T19:00:05.530Z,96470.88
2022-11-21T19:02:18.805Z,96464.81
2022-11-21T19:04:20.209Z,96456.13
2022-11-21T19:06:21.487Z,96451.78
2022-11-21T19:08:28.516Z,96449.16
2022-11-21T19:10:42.967Z,96440.56
2022-11-21T19:12:47.973Z,96444.16
2022-11-21T19:14:52.019Z,96434.81
2022-11-21T19:19:46.604Z,96285.84
2022-11-21T19:21:56.922Z,96411.69
2022-11-21T19:24:01.049Z,96413.75
2022-11-21T19:26:02.369Z,96418.28
2022-11-21T19:28:09.757Z,96413.41
2022-11-21T19:30:11.108Z,96403.47
2022-11-21T19:32:18.554Z,96408.88
2022-11-21T19:34:22.596Z,96399.78
2022-11-21T19:36:26.821Z,96397.50
2022-11-21T19:38:28.106Z,96402.91
2022-11-21T19:40:49.408Z,96385.41
2022-11-21T19:42:56.565Z,96381.47
2022-11-21T19:44:58.281Z,96381.66
2022-11-21T19:47:03.076Z,96381.09
2022-11-21T19:49:06.990Z,96372.84
2022-11-21T19:51:08.341Z,96383.22
2022-11-21T19:53:09.625Z,96383.22
2022-11-21T19:55:10.909Z,96368.16
2022-11-21T19:57:14.047Z,96380.91
2022-11-21T19:59:18.328Z,96369.03
2022-11-21T20:01:31.629Z,96373.59
2022-11-21T20:03:32.993Z,96374.94
2022-11-21T20:05:34.278Z,96376.09
2022-11-21T20:07:35.717Z,96379.81
2022-11-21T20:09:37.206Z,96371.63
2022-11-21T20:11:38.815Z,96372.84
2022-11-21T20:13:40.546Z,96366.44
2022-11-21T20:15:44.694Z,96362.69
2022-11-21T20:17:46.025Z,96364.97
2022-11-21T20:19:50.614Z,96347.75
2022-11-21T20:21:55.383Z,96362.06
2022-11-21T20:23:56.684Z,96354.19
2022-11-21T20:25:57.978Z,96349.00
2022-11-21T20:27:59.250Z,96335.31
2022-11-21T20:30:04.414Z,96345.44
2022-11-21T20:32:05.741Z,96354.91
2022-11-21T20:34:07.080Z,96338.81
2022-11-21T20:36:08.403Z,96339.88
2022-11-21T20:38:09.729Z,96338.31
2022-11-21T20:40:13.810Z,96341.91
2022-11-21T20:42:17.869Z,96335.50
2022-11-21T20:45:36.037Z,96335.72
2022-11-21T20:46:40.840Z,96154.91
2022-11-21T20:48:42.168Z,96338.03
2022-11-21T20:55:29.005Z,96350.13
2022-11-21T20:57:33.229Z,96349.63
2022-11-21T20:59:34.509Z,96339.69
2022-11-21T21:01:35.810Z,96354.44
2022-11-21T21:03:37.148Z,96347.03
2022-11-21T21:05:38.502Z,96348.94
2022-11-21T21:07:39.846Z,96352.56
2022-11-21T21:09:41.193Z,96353.63
2022-11-21T21:11:52.028Z,96341.97
2022-11-21T21:13:54.454Z,96350.56
2022-11-21T21:16:01.989Z,96343.81
2022-11-21T21:18:03.340Z,96352.28
2022-11-21T21:20:04.636Z,96347.72
2022-11-21T21:22:09.048Z,96346.31
2022-11-21T21:24:10.888Z,96345.84
2022-11-21T21:26:18.234Z,96344.34
2022-11-21T21:28:19.521Z,96346.28
2022-11-21T21:30:20.999Z,96338.25
2022-11-21T21:32:22.284Z,96348.81
2022-11-21T21:34:23.667Z,96342.53
2022-11-21T21:36:24.960Z,96343.84
2022-11-21T21:38:26.244Z,96341.03
2022-11-21T21:40:27.595Z,96340.84
2022-11-21T21:42:28.912Z,96345.84
2022-11-21T21:44:33.483Z,96342.34
2022-11-21T21:46:35.164Z,96361.75
2022-11-21T21:48:36.472Z,96354.34
2022-11-21T21:50:38.496Z,96360.19
2022-11-21T21:52:39.828Z,96362.06
2022-11-21T21:54:41.158Z,96368.16
2022-11-21T21:56:42.456Z,96368.28
2022-11-21T21:58:43.732Z,96365.13
2022-11-21T22:00:45.014Z,96363.75
2022-11-21T22:02:46.358Z,96348.59
2022-11-21T22:04:51.816Z,96371.78
2022-11-21T22:07:00.784Z,96367.88
2022-11-21T22:09:02.189Z,96363.91
2022-11-21T22:11:03.518Z,96361.69
2022-11-21T22:13:04.850Z,96363.63
2022-11-21T22:15:06.137Z,96361.28
2022-11-21T22:17:07.462Z,96366.72
2022-11-21T22:19:08.816Z,96367.78
2022-11-21T22:21:10.085Z,96365.44
2022-11-21T22:23:11.375Z,96370.47
2022-11-21T22:25:12.692Z,96374.56
2022-11-21T22:27:14.001Z,96370.69
2022-11-21T22:29:15.281Z,96369.91
2022-11-21T22:31:16.620Z,96373.09
2022-11-21T22:33:17.901Z,96373.22
2022-11-21T22:35:19.233Z,96365.31
2022-11-21T22:37:20.721Z,96357.56
2022-11-21T22:39:22.021Z,96359.97
2022-11-21T22:41:23.309Z,96351.75
2022-11-21T22:43:24.619Z,96352.34
2022-11-21T22:45:25.899Z,96346.53
2022-11-21T22:47:27.185Z,96341.09
2022-11-21T22:49:28.464Z,96338.34
2022-11-21T22:51:30.034Z,96340.34
2022-11-21T22:53:35.625Z,96348.53
2022-11-21T22:55:39.936Z,96341.50
2022-11-21T22:57:41.226Z,96341.34
2022-11-21T22:59:42.709Z,96339.03
2022-11-21T23:01:44.055Z,96336.81
2022-11-21T23:03:45.344Z,96326.16
2022-11-21T23:05:46.660Z,96331.47
2022-11-21T23:07:48.019Z,96332.88
2022-11-21T23:09:49.405Z,96325.94
2022-11-21T23:11:50.685Z,96317.00
2022-11-21T23:13:52.177Z,96316.81
2022-11-21T23:15:53.456Z,96316.22
2022-11-21T23:17:54.840Z,96307.19
2022-11-21T23:19:56.160Z,96307.63
2022-11-21T23:21:57.469Z,96309.28
2022-11-21T23:23:58.762Z,96305.16
2022-11-21T23:26:00.111Z,96303.00
2022-11-21T23:28:01.457Z,96305.94
2022-11-21T23:30:02.763Z,96291.09
2022-11-21T23:32:04.113Z,96175.47
2022-11-21T23:34:05.542Z,96289.38
2022-11-21T23:36:06.836Z,96285.34
2022-11-21T23:38:08.157Z,96288.16
2022-11-21T23:40:09.447Z,96289.47
2022-11-21T23:42:10.729Z,96285.91
2022-11-21T23:44:12.006Z,96272.38
2022-11-21T23:46:13.444Z,96277.00
2022-11-21T23:48:14.740Z,96263.03
2022-11-21T23:50:16.064Z,96270.38
2022-11-21T23:52:17.386Z,96268.66
2022-11-21T23:54:18.694Z,96263.28
2022-11-21T23:56:19.960Z,96258.25
2022-11-21T23:58:21.349Z,96254.31
